sensor_id;sensor_type;location;lat;lon;timestamp;temperature;humidity
76269;DHT22;65088;52.352;4.846;2022-12-31T00:00:44;12.40;81.00
76269;DHT22;65088;52.352;4.846;2022-12-31T00:03:14;12.30;81.40
76269;DHT22;65088;52.352;4.846;2022-12-31T00:05:43;12.30;81.50
76269;DHT22;65088;52.352;4.846;2022-12-31T00:08:13;12.20;81.70
76269;DHT22;65088;52.352;4.846;2022-12-31T00:10:45;12.20;82.10
76269;DHT22;65088;52.352;4.846;2022-12-31T00:13:14;12.10;82.20
76269;DHT22;65088;52.352;4.846;2022-12-31T00:15:44;12.10;82.30
76269;DHT22;65088;52.352;4.846;2022-12-31T00:18:13;12.10;82.30
76269;DHT22;65088;52.352;4.846;2022-12-31T00:20:43;12.10;82.40
76269;DHT22;65088;52.352;4.846;2022-12-31T00:23:12;12.00;82.40
76269;DHT22;65088;52.352;4.846;2022-12-31T00:25:44;12.00;82.40
76269;DHT22;65088;52.352;4.846;2022-12-31T00:28:13;12.00;82.40
76269;DHT22;65088;52.352;4.846;2022-12-31T00:30:43;11.90;82.40
76269;DHT22;65088;52.352;4.846;2022-12-31T00:33:12;11.90;82.40
76269;DHT22;65088;52.352;4.846;2022-12-31T00:35:42;11.90;82.50
76269;DHT22;65088;52.352;4.846;2022-12-31T00:38:11;11.80;82.70
76269;DHT22;65088;52.352;4.846;2022-12-31T00:40:40;11.80;82.70
76269;DHT22;65088;52.352;4.846;2022-12-31T00:43:12;11.70;82.90
76269;DHT22;65088;52.352;4.846;2022-12-31T00:45:41;11.70;83.00
76269;DHT22;65088;52.352;4.846;2022-12-31T00:48:11;11.70;83.00
76269;DHT22;65088;52.352;4.846;2022-12-31T00:50:42;11.70;83.20
76269;DHT22;65088;52.352;4.846;2022-12-31T00:53:12;11.70;83.20
76269;DHT22;65088;52.352;4.846;2022-12-31T00:55:42;11.70;83.30
76269;DHT22;65088;52.352;4.846;2022-12-31T00:58:14;11.70;83.40
76269;DHT22;65088;52.352;4.846;2022-12-31T01:00:45;11.60;83.50
76269;DHT22;65088;52.352;4.846;2022-12-31T01:03:14;11.60;83.60
76269;DHT22;65088;52.352;4.846;2022-12-31T01:05:44;11.60;83.80
76269;DHT22;65088;52.352;4.846;2022-12-31T01:08:13;11.60;84.00
76269;DHT22;65088;52.352;4.846;2022-12-31T01:10:47;11.60;84.30
76269;DHT22;65088;52.352;4.846;2022-12-31T01:13:32;11.70;84.40
76269;DHT22;65088;52.352;4.846;2022-12-31T01:16:06;11.70;84.50
76269;DHT22;65088;52.352;4.846;2022-12-31T01:18:36;11.70;84.70
76269;DHT22;65088;52.352;4.846;2022-12-31T01:21:08;11.80;84.70
76269;DHT22;65088;52.352;4.846;2022-12-31T01:23:38;11.80;84.90
76269;DHT22;65088;52.352;4.846;2022-12-31T01:26:10;11.80;84.90
76269;DHT22;65088;52.352;4.846;2022-12-31T01:28:43;11.80;85.00
76269;DHT22;65088;52.352;4.846;2022-12-31T01:31:16;11.80;85.10
76269;DHT22;65088;52.352;4.846;2022-12-31T01:33:47;11.80;85.10
76269;DHT22;65088;52.352;4.846;2022-12-31T01:36:18;11.70;85.20
76269;DHT22;65088;52.352;4.846;2022-12-31T01:38:50;11.80;85.30
76269;DHT22;65088;52.352;4.846;2022-12-31T01:41:22;11.70;85.30
76269;DHT22;65088;52.352;4.846;2022-12-31T01:43:56;11.70;85.30
76269;DHT22;65088;52.352;4.846;2022-12-31T01:46:31;11.70;85.40
76269;DHT22;65088;52.352;4.846;2022-12-31T01:49:05;11.70;85.50
76269;DHT22;65088;52.352;4.846;2022-12-31T01:51:39;11.70;85.50
76269;DHT22;65088;52.352;4.846;2022-12-31T01:54:12;11.70;85.50
76269;DHT22;65088;52.352;4.846;2022-12-31T01:56:43;11.70;85.50
76269;DHT22;65088;52.352;4.846;2022-12-31T01:59:17;11.70;85.50
76269;DHT22;65088;52.352;4.846;2022-12-31T02:01:48;11.70;85.50
76269;DHT22;65088;52.352;4.846;2022-12-31T02:04:26;11.60;85.50
76269;DHT22;65088;52.352;4.846;2022-12-31T02:06:59;11.60;85.60
76269;DHT22;65088;52.352;4.846;2022-12-31T02:09:29;11.60;85.50
76269;DHT22;65088;52.352;4.846;2022-12-31T02:12:03;11.60;85.60
76269;DHT22;65088;52.352;4.846;2022-12-31T02:14:38;11.50;85.60
76269;DHT22;65088;52.352;4.846;2022-12-31T02:17:20;11.50;85.60
76269;DHT22;65088;52.352;4.846;2022-12-31T02:23:28;11.50;85.80
76269;DHT22;65088;52.352;4.846;2022-12-31T02:26:19;11.50;85.80
76269;DHT22;65088;52.352;4.846;2022-12-31T02:29:13;11.50;85.80
76269;DHT22;65088;52.352;4.846;2022-12-31T02:31:49;11.40;85.90
76269;DHT22;65088;52.352;4.846;2022-12-31T02:34:26;11.40;85.90
76269;DHT22;65088;52.352;4.846;2022-12-31T02:36:59;11.40;85.90
76269;DHT22;65088;52.352;4.846;2022-12-31T02:39:30;11.40;85.90
76269;DHT22;65088;52.352;4.846;2022-12-31T02:42:00;11.40;85.90
76269;DHT22;65088;52.352;4.846;2022-12-31T02:44:31;11.40;86.00
76269;DHT22;65088;52.352;4.846;2022-12-31T02:47:17;11.50;86.10
76269;DHT22;65088;52.352;4.846;2022-12-31T02:50:04;11.50;86.20
76269;DHT22;65088;52.352;4.846;2022-12-31T02:52:42;11.50;86.10
76269;DHT22;65088;52.352;4.846;2022-12-31T02:55:20;11.50;86.20
76269;DHT22;65088;52.352;4.846;2022-12-31T02:57:57;11.50;86.20
76269;DHT22;65088;52.352;4.846;2022-12-31T03:00:29;11.50;86.20
76269;DHT22;65088;52.352;4.846;2022-12-31T03:03:15;11.50;86.20
76269;DHT22;65088;52.352;4.846;2022-12-31T03:05:46;11.50;86.20
76269;DHT22;65088;52.352;4.846;2022-12-31T03:08:22;11.60;86.30
76269;DHT22;65088;52.352;4.846;2022-12-31T03:11:18;11.50;86.20
76269;DHT22;65088;52.352;4.846;2022-12-31T03:14:02;11.50;86.30
76269;DHT22;65088;52.352;4.846;2022-12-31T03:16:31;11.50;86.30
76269;DHT22;65088;52.352;4.846;2022-12-31T03:19:03;11.50;86.30
76269;DHT22;65088;52.352;4.846;2022-12-31T03:21:45;11.50;86.20
76269;DHT22;65088;52.352;4.846;2022-12-31T03:24:26;11.50;86.20
76269;DHT22;65088;52.352;4.846;2022-12-31T03:27:08;11.40;86.30
76269;DHT22;65088;52.352;4.846;2022-12-31T03:29:37;11.40;86.20
76269;DHT22;65088;52.352;4.846;2022-12-31T03:32:07;11.40;86.20
76269;DHT22;65088;52.352;4.846;2022-12-31T03:34:39;11.40;86.20
76269;DHT22;65088;52.352;4.846;2022-12-31T03:37:08;11.40;86.30
76269;DHT22;65088;52.352;4.846;2022-12-31T03:39:40;11.40;86.30
76269;DHT22;65088;52.352;4.846;2022-12-31T03:42:09;11.30;86.30
76269;DHT22;65088;52.352;4.846;2022-12-31T03:44:38;11.30;86.30
76269;DHT22;65088;52.352;4.846;2022-12-31T03:47:08;11.30;86.30
76269;DHT22;65088;52.352;4.846;2022-12-31T03:49:40;11.30;86.30
76269;DHT22;65088;52.352;4.846;2022-12-31T03:52:11;11.30;86.30
76269;DHT22;65088;52.352;4.846;2022-12-31T03:54:42;11.30;86.30
76269;DHT22;65088;52.352;4.846;2022-12-31T03:57:11;11.30;86.30
76269;DHT22;65088;52.352;4.846;2022-12-31T03:59:41;11.20;86.20
76269;DHT22;65088;52.352;4.846;2022-12-31T04:02:10;11.20;86.20
76269;DHT22;65088;52.352;4.846;2022-12-31T04:04:42;11.10;86.20
76269;DHT22;65088;52.352;4.846;2022-12-31T04:07:13;11.10;86.20
76269;DHT22;65088;52.352;4.846;2022-12-31T04:09:43;11.00;86.10
76269;DHT22;65088;52.352;4.846;2022-12-31T04:12:12;11.00;86.20
76269;DHT22;65088;52.352;4.846;2022-12-31T04:14:44;11.00;86.20
76269;DHT22;65088;52.352;4.846;2022-12-31T04:17:15;11.00;86.20
76269;DHT22;65088;52.352;4.846;2022-12-31T04:19:47;10.90;86.20
76269;DHT22;65088;52.352;4.846;2022-12-31T04:22:16;10.90;86.20
76269;DHT22;65088;52.352;4.846;2022-12-31T04:24:46;10.90;86.20
76269;DHT22;65088;52.352;4.846;2022-12-31T04:27:15;10.80;86.20
76269;DHT22;65088;52.352;4.846;2022-12-31T04:29:45;10.80;86.20
76269;DHT22;65088;52.352;4.846;2022-12-31T04:32:14;10.80;86.20
76269;DHT22;65088;52.352;4.846;2022-12-31T04:34:46;10.80;86.20
76269;DHT22;65088;52.352;4.846;2022-12-31T04:37:17;10.80;86.20
76269;DHT22;65088;52.352;4.846;2022-12-31T04:39:46;10.70;86.20
76269;DHT22;65088;52.352;4.846;2022-12-31T04:42:17;10.70;86.20
76269;DHT22;65088;52.352;4.846;2022-12-31T04:44:46;10.70;86.30
76269;DHT22;65088;52.352;4.846;2022-12-31T04:47:15;10.70;86.30
76269;DHT22;65088;52.352;4.846;2022-12-31T04:49:47;10.70;86.30
76269;DHT22;65088;52.352;4.846;2022-12-31T04:52:17;10.70;86.20
76269;DHT22;65088;52.352;4.846;2022-12-31T04:54:46;10.70;86.20
76269;DHT22;65088;52.352;4.846;2022-12-31T04:57:19;10.60;86.20
76269;DHT22;65088;52.352;4.846;2022-12-31T04:59:49;10.60;86.30
76269;DHT22;65088;52.352;4.846;2022-12-31T05:02:18;10.60;86.30
76269;DHT22;65088;52.352;4.846;2022-12-31T05:04:50;10.60;86.30
76269;DHT22;65088;52.352;4.846;2022-12-31T05:07:19;10.60;86.40
76269;DHT22;65088;52.352;4.846;2022-12-31T05:09:48;10.60;86.40
76269;DHT22;65088;52.352;4.846;2022-12-31T05:12:24;10.60;86.40
76269;DHT22;65088;52.352;4.846;2022-12-31T05:14:56;10.60;86.40
76269;DHT22;65088;52.352;4.846;2022-12-31T05:17:25;10.60;86.50
76269;DHT22;65088;52.352;4.846;2022-12-31T05:19:57;10.60;86.50
76269;DHT22;65088;52.352;4.846;2022-12-31T05:22:27;10.60;86.50
76269;DHT22;65088;52.352;4.846;2022-12-31T05:25:00;10.60;86.50
76269;DHT22;65088;52.352;4.846;2022-12-31T05:27:29;10.70;86.50
76269;DHT22;65088;52.352;4.846;2022-12-31T05:29:59;10.70;86.50
76269;DHT22;65088;52.352;4.846;2022-12-31T05:32:28;10.70;86.60
76269;DHT22;65088;52.352;4.846;2022-12-31T05:35:00;10.70;86.50
76269;DHT22;65088;52.352;4.846;2022-12-31T05:37:30;10.70;86.60
76269;DHT22;65088;52.352;4.846;2022-12-31T05:40:00;10.80;86.60
76269;DHT22;65088;52.352;4.846;2022-12-31T05:42:29;10.80;86.60
76269;DHT22;65088;52.352;4.846;2022-12-31T05:44:59;10.80;86.60
76269;DHT22;65088;52.352;4.846;2022-12-31T05:47:28;10.80;86.60
76269;DHT22;65088;52.352;4.846;2022-12-31T05:50:00;10.80;86.60
76269;DHT22;65088;52.352;4.846;2022-12-31T05:52:29;10.80;86.60
76269;DHT22;65088;52.352;4.846;2022-12-31T05:54:59;10.90;86.60
76269;DHT22;65088;52.352;4.846;2022-12-31T05:57:28;10.90;86.60
76269;DHT22;65088;52.352;4.846;2022-12-31T05:59:59;10.90;86.60
76269;DHT22;65088;52.352;4.846;2022-12-31T06:02:39;10.90;86.60
76269;DHT22;65088;52.352;4.846;2022-12-31T06:05:11;11.00;86.60
76269;DHT22;65088;52.352;4.846;2022-12-31T06:07:41;11.00;86.70
76269;DHT22;65088;52.352;4.846;2022-12-31T06:10:10;11.10;86.70
76269;DHT22;65088;52.352;4.846;2022-12-31T06:12:40;11.10;86.60
76269;DHT22;65088;52.352;4.846;2022-12-31T06:15:10;11.10;86.70
76269;DHT22;65088;52.352;4.846;2022-12-31T06:17:39;11.10;86.70
76269;DHT22;65088;52.352;4.846;2022-12-31T06:20:11;11.10;86.70
76269;DHT22;65088;52.352;4.846;2022-12-31T06:22:42;11.10;86.60
76269;DHT22;65088;52.352;4.846;2022-12-31T06:25:14;11.10;86.60
76269;DHT22;65088;52.352;4.846;2022-12-31T06:27:43;11.10;86.60
76269;DHT22;65088;52.352;4.846;2022-12-31T06:30:13;11.10;86.60
76269;DHT22;65088;52.352;4.846;2022-12-31T06:32:42;11.10;86.70
76269;DHT22;65088;52.352;4.846;2022-12-31T06:35:14;11.20;86.70
76269;DHT22;65088;52.352;4.846;2022-12-31T06:37:44;11.20;86.70
76269;DHT22;65088;52.352;4.846;2022-12-31T06:40:13;11.20;86.70
76269;DHT22;65088;52.352;4.846;2022-12-31T06:42:43;11.20;86.70
76269;DHT22;65088;52.352;4.846;2022-12-31T06:45:12;11.30;86.70
76269;DHT22;65088;52.352;4.846;2022-12-31T06:47:41;11.30;86.70
76269;DHT22;65088;52.352;4.846;2022-12-31T06:50:11;11.30;86.80
76269;DHT22;65088;52.352;4.846;2022-12-31T06:52:42;11.30;86.80
76269;DHT22;65088;52.352;4.846;2022-12-31T06:55:14;11.40;86.80
76269;DHT22;65088;52.352;4.846;2022-12-31T06:57:44;11.40;86.80
76269;DHT22;65088;52.352;4.846;2022-12-31T07:00:15;11.50;86.90
76269;DHT22;65088;52.352;4.846;2022-12-31T07:03:09;11.60;86.90
76269;DHT22;65088;52.352;4.846;2022-12-31T07:05:48;11.60;87.00
76269;DHT22;65088;52.352;4.846;2022-12-31T07:08:39;11.70;87.00
76269;DHT22;65088;52.352;4.846;2022-12-31T07:11:16;11.80;87.00
76269;DHT22;65088;52.352;4.846;2022-12-31T07:14:02;11.80;87.10
76269;DHT22;65088;52.352;4.846;2022-12-31T07:16:49;11.90;87.10
76269;DHT22;65088;52.352;4.846;2022-12-31T07:19:31;12.00;87.20
76269;DHT22;65088;52.352;4.846;2022-12-31T07:22:02;12.10;87.20
76269;DHT22;65088;52.352;4.846;2022-12-31T07:24:35;12.20;87.20
76269;DHT22;65088;52.352;4.846;2022-12-31T07:27:17;12.30;87.20
76269;DHT22;65088;52.352;4.846;2022-12-31T07:30:00;12.40;87.30
76269;DHT22;65088;52.352;4.846;2022-12-31T07:32:46;12.50;87.40
76269;DHT22;65088;52.352;4.846;2022-12-31T07:35:28;12.60;87.40
76269;DHT22;65088;52.352;4.846;2022-12-31T07:38:11;12.70;87.40
76269;DHT22;65088;52.352;4.846;2022-12-31T07:40:54;12.80;87.40
76269;DHT22;65088;52.352;4.846;2022-12-31T07:43:30;12.90;87.40
76269;DHT22;65088;52.352;4.846;2022-12-31T07:46:09;13.00;87.40
76269;DHT22;65088;52.352;4.846;2022-12-31T07:48:41;13.00;87.50
76269;DHT22;65088;52.352;4.846;2022-12-31T07:51:12;13.00;87.40
76269;DHT22;65088;52.352;4.846;2022-12-31T07:53:42;13.00;87.40
76269;DHT22;65088;52.352;4.846;2022-12-31T07:56:14;13.10;87.40
76269;DHT22;65088;52.352;4.846;2022-12-31T07:59:00;13.10;87.40
76269;DHT22;65088;52.352;4.846;2022-12-31T08:01:35;13.00;87.40
76269;DHT22;65088;52.352;4.846;2022-12-31T08:04:15;13.10;87.40
76269;DHT22;65088;52.352;4.846;2022-12-31T08:06:52;13.10;87.30
76269;DHT22;65088;52.352;4.846;2022-12-31T08:09:30;13.10;87.30
76269;DHT22;65088;52.352;4.846;2022-12-31T08:12:07;13.10;87.30
76269;DHT22;65088;52.352;4.846;2022-12-31T08:14:42;13.00;87.20
76269;DHT22;65088;52.352;4.846;2022-12-31T08:17:15;13.00;87.20
76269;DHT22;65088;52.352;4.846;2022-12-31T08:19:46;13.00;87.20
76269;DHT22;65088;52.352;4.846;2022-12-31T08:22:26;13.00;87.10
76269;DHT22;65088;52.352;4.846;2022-12-31T08:25:07;12.90;87.10
76269;DHT22;65088;52.352;4.846;2022-12-31T08:27:49;12.90;87.10
76269;DHT22;65088;52.352;4.846;2022-12-31T08:30:32;12.90;87.00
76269;DHT22;65088;52.352;4.846;2022-12-31T08:33:09;12.90;87.00
76269;DHT22;65088;52.352;4.846;2022-12-31T08:35:51;12.90;87.00
76269;DHT22;65088;52.352;4.846;2022-12-31T08:38:27;12.90;87.10
76269;DHT22;65088;52.352;4.846;2022-12-31T08:41:06;12.90;87.00
76269;DHT22;65088;52.352;4.846;2022-12-31T08:43:48;12.90;87.00
76269;DHT22;65088;52.352;4.846;2022-12-31T08:46:24;13.00;87.10
76269;DHT22;65088;52.352;4.846;2022-12-31T08:48:54;13.00;87.10
76269;DHT22;65088;52.352;4.846;2022-12-31T08:51:25;13.10;87.20
76269;DHT22;65088;52.352;4.846;2022-12-31T08:53:55;13.10;87.20
76269;DHT22;65088;52.352;4.846;2022-12-31T08:56:31;13.10;87.10
76269;DHT22;65088;52.352;4.846;2022-12-31T08:59:15;13.10;87.20
76269;DHT22;65088;52.352;4.846;2022-12-31T09:01:58;13.20;87.20
76269;DHT22;65088;52.352;4.846;2022-12-31T09:04:38;13.20;87.20
76269;DHT22;65088;52.352;4.846;2022-12-31T09:07:13;13.20;87.30
76269;DHT22;65088;52.352;4.846;2022-12-31T09:09:54;13.20;87.20
76269;DHT22;65088;52.352;4.846;2022-12-31T09:12:31;13.30;87.20
76269;DHT22;65088;52.352;4.846;2022-12-31T09:15:11;13.30;87.20
76269;DHT22;65088;52.352;4.846;2022-12-31T09:17:45;13.30;87.20
76269;DHT22;65088;52.352;4.846;2022-12-31T09:20:20;13.40;87.30
76269;DHT22;65088;52.352;4.846;2022-12-31T09:22:51;13.50;87.30
76269;DHT22;65088;52.352;4.846;2022-12-31T09:25:23;13.60;87.30
76269;DHT22;65088;52.352;4.846;2022-12-31T09:28:03;13.70;87.30
76269;DHT22;65088;52.352;4.846;2022-12-31T09:30:44;13.70;87.40
76269;DHT22;65088;52.352;4.846;2022-12-31T09:33:31;13.80;87.30
76269;DHT22;65088;52.352;4.846;2022-12-31T09:36:05;13.80;87.30
76269;DHT22;65088;52.352;4.846;2022-12-31T09:38:40;13.90;87.20
76269;DHT22;65088;52.352;4.846;2022-12-31T09:41:14;13.90;87.10
76269;DHT22;65088;52.352;4.846;2022-12-31T09:44:20;13.90;87.00
76269;DHT22;65088;52.352;4.846;2022-12-31T09:47:21;14.00;86.90
76269;DHT22;65088;52.352;4.846;2022-12-31T09:50:17;14.00;86.60
76269;DHT22;65088;52.352;4.846;2022-12-31T09:53:07;13.90;85.70
76269;DHT22;65088;52.352;4.846;2022-12-31T09:55:46;13.70;85.70
76269;DHT22;65088;52.352;4.846;2022-12-31T09:58:27;13.60;85.90
76269;DHT22;65088;52.352;4.846;2022-12-31T10:01:06;13.50;86.00
76269;DHT22;65088;52.352;4.846;2022-12-31T10:04:05;13.50;86.10
76269;DHT22;65088;52.352;4.846;2022-12-31T10:06:44;13.50;86.20
76269;DHT22;65088;52.352;4.846;2022-12-31T10:09:30;13.50;86.30
76269;DHT22;65088;52.352;4.846;2022-12-31T10:12:30;13.50;86.20
76269;DHT22;65088;52.352;4.846;2022-12-31T10:17:59;13.50;86.40
76269;DHT22;65088;52.352;4.846;2022-12-31T10:20:46;13.50;86.40
76269;DHT22;65088;52.352;4.846;2022-12-31T10:23:47;13.60;86.50
76269;DHT22;65088;52.352;4.846;2022-12-31T10:26:41;13.60;86.50
76269;DHT22;65088;52.352;4.846;2022-12-31T10:29:23;13.70;86.50
76269;DHT22;65088;52.352;4.846;2022-12-31T10:32:07;13.80;86.40
76269;DHT22;65088;52.352;4.846;2022-12-31T10:34:54;13.90;86.20
76269;DHT22;65088;52.352;4.846;2022-12-31T10:37:33;14.00;85.70
76269;DHT22;65088;52.352;4.846;2022-12-31T10:40:18;14.10;85.20
76269;DHT22;65088;52.352;4.846;2022-12-31T10:43:27;14.20;85.10
76269;DHT22;65088;52.352;4.846;2022-12-31T10:55:27;14.40;83.40
76269;DHT22;65088;52.352;4.846;2022-12-31T10:58:35;14.50;83.90
76269;DHT22;65088;52.352;4.846;2022-12-31T11:01:17;14.50;83.60
76269;DHT22;65088;52.352;4.846;2022-12-31T11:07:20;14.40;82.80
76269;DHT22;65088;52.352;4.846;2022-12-31T11:10:19;14.40;82.60
76269;DHT22;65088;52.352;4.846;2022-12-31T11:16:14;14.30;82.50
76269;DHT22;65088;52.352;4.846;2022-12-31T11:18:51;14.20;82.80
76269;DHT22;65088;52.352;4.846;2022-12-31T11:21:38;14.10;82.70
76269;DHT22;65088;52.352;4.846;2022-12-31T11:24:17;14.10;83.20
76269;DHT22;65088;52.352;4.846;2022-12-31T11:27:09;14.00;83.30
76269;DHT22;65088;52.352;4.846;2022-12-31T11:30:03;14.00;83.60
76269;DHT22;65088;52.352;4.846;2022-12-31T11:32:45;14.00;83.40
76269;DHT22;65088;52.352;4.846;2022-12-31T11:35:24;13.90;83.70
76269;DHT22;65088;52.352;4.846;2022-12-31T11:38:03;13.80;83.90
76269;DHT22;65088;52.352;4.846;2022-12-31T11:40:46;13.80;84.20
76269;DHT22;65088;52.352;4.846;2022-12-31T11:43:25;13.70;84.20
76269;DHT22;65088;52.352;4.846;2022-12-31T11:46:17;13.70;84.30
76269;DHT22;65088;52.352;4.846;2022-12-31T11:49:05;13.70;84.20
76269;DHT22;65088;52.352;4.846;2022-12-31T11:51:54;13.60;84.10
76269;DHT22;65088;52.352;4.846;2022-12-31T11:57:39;13.40;84.40
76269;DHT22;65088;52.352;4.846;2022-12-31T12:00:15;13.40;84.50
76269;DHT22;65088;52.352;4.846;2022-12-31T12:02:50;13.40;84.70
76269;DHT22;65088;52.352;4.846;2022-12-31T12:05:24;13.30;84.90
76269;DHT22;65088;52.352;4.846;2022-12-31T12:07:54;13.40;85.00
76269;DHT22;65088;52.352;4.846;2022-12-31T12:10:26;13.40;85.10
76269;DHT22;65088;52.352;4.846;2022-12-31T12:12:57;13.30;85.20
76269;DHT22;65088;52.352;4.846;2022-12-31T12:15:30;13.30;85.30
76269;DHT22;65088;52.352;4.846;2022-12-31T12:18:12;13.40;85.40
76269;DHT22;65088;52.352;4.846;2022-12-31T12:20:47;13.40;85.50
76269;DHT22;65088;52.352;4.846;2022-12-31T12:23:21;13.40;85.60
76269;DHT22;65088;52.352;4.846;2022-12-31T12:25:52;13.40;85.70
76269;DHT22;65088;52.352;4.846;2022-12-31T12:28:26;13.50;85.70
76269;DHT22;65088;52.352;4.846;2022-12-31T12:30:58;13.50;85.70
76269;DHT22;65088;52.352;4.846;2022-12-31T12:33:30;13.50;85.80
76269;DHT22;65088;52.352;4.846;2022-12-31T12:36:13;13.50;85.80
76269;DHT22;65088;52.352;4.846;2022-12-31T12:38:43;13.50;85.80
76269;DHT22;65088;52.352;4.846;2022-12-31T12:41:22;13.60;85.90
76269;DHT22;65088;52.352;4.846;2022-12-31T12:44:02;13.60;85.80
76269;DHT22;65088;52.352;4.846;2022-12-31T12:46:34;13.60;85.90
76269;DHT22;65088;52.352;4.846;2022-12-31T12:49:05;13.60;85.90
76269;DHT22;65088;52.352;4.846;2022-12-31T12:51:44;13.60;85.90
76269;DHT22;65088;52.352;4.846;2022-12-31T12:54:27;13.60;85.90
76269;DHT22;65088;52.352;4.846;2022-12-31T12:57:06;13.70;85.90
76269;DHT22;65088;52.352;4.846;2022-12-31T12:59:56;13.70;85.80
76269;DHT22;65088;52.352;4.846;2022-12-31T13:05:33;13.70;85.60
76269;DHT22;65088;52.352;4.846;2022-12-31T13:08:14;13.80;85.50
76269;DHT22;65088;52.352;4.846;2022-12-31T13:10:57;13.80;85.50
76269;DHT22;65088;52.352;4.846;2022-12-31T13:13:34;13.80;85.30
76269;DHT22;65088;52.352;4.846;2022-12-31T13:16:15;13.90;85.10
76269;DHT22;65088;52.352;4.846;2022-12-31T13:18:53;13.90;85.00
76269;DHT22;65088;52.352;4.846;2022-12-31T13:21:39;13.90;84.90
76269;DHT22;65088;52.352;4.846;2022-12-31T13:24:20;13.80;84.80
76269;DHT22;65088;52.352;4.846;2022-12-31T13:26:57;13.80;84.90
76269;DHT22;65088;52.352;4.846;2022-12-31T13:29:29;13.80;85.00
76269;DHT22;65088;52.352;4.846;2022-12-31T13:32:03;13.80;85.10
76269;DHT22;65088;52.352;4.846;2022-12-31T13:34:37;13.80;85.10
76269;DHT22;65088;52.352;4.846;2022-12-31T13:37:18;13.80;85.30
76269;DHT22;65088;52.352;4.846;2022-12-31T13:39:58;13.80;85.40
76269;DHT22;65088;52.352;4.846;2022-12-31T13:42:34;13.80;85.40
76269;DHT22;65088;52.352;4.846;2022-12-31T13:45:10;13.90;85.40
76269;DHT22;65088;52.352;4.846;2022-12-31T13:47:44;13.80;85.50
76269;DHT22;65088;52.352;4.846;2022-12-31T13:50:21;13.90;85.40
76269;DHT22;65088;52.352;4.846;2022-12-31T13:52:56;13.90;85.40
76269;DHT22;65088;52.352;4.846;2022-12-31T13:55:32;13.80;85.40
76269;DHT22;65088;52.352;4.846;2022-12-31T13:58:17;13.80;85.40
76269;DHT22;65088;52.352;4.846;2022-12-31T14:00:52;13.80;85.40
76269;DHT22;65088;52.352;4.846;2022-12-31T14:03:35;13.80;85.40
76269;DHT22;65088;52.352;4.846;2022-12-31T14:06:11;13.70;85.40
76269;DHT22;65088;52.352;4.846;2022-12-31T14:08:45;13.70;85.50
76269;DHT22;65088;52.352;4.846;2022-12-31T14:11:22;13.70;85.60
76269;DHT22;65088;52.352;4.846;2022-12-31T14:14:05;13.80;85.70
76269;DHT22;65088;52.352;4.846;2022-12-31T14:16:40;13.80;85.70
76269;DHT22;65088;52.352;4.846;2022-12-31T14:19:18;13.80;85.70
76269;DHT22;65088;52.352;4.846;2022-12-31T14:21:53;13.70;85.60
76269;DHT22;65088;52.352;4.846;2022-12-31T14:24:35;13.70;85.50
76269;DHT22;65088;52.352;4.846;2022-12-31T14:27:18;13.70;85.40
76269;DHT22;65088;52.352;4.846;2022-12-31T14:29:52;13.60;85.30
76269;DHT22;65088;52.352;4.846;2022-12-31T14:32:45;13.60;85.30
76269;DHT22;65088;52.352;4.846;2022-12-31T14:35:39;13.60;85.20
76269;DHT22;65088;52.352;4.846;2022-12-31T14:38:19;13.50;85.10
76269;DHT22;65088;52.352;4.846;2022-12-31T14:41:05;13.50;85.00
76269;DHT22;65088;52.352;4.846;2022-12-31T14:43:49;13.50;85.00
76269;DHT22;65088;52.352;4.846;2022-12-31T14:46:25;13.50;84.90
76269;DHT22;65088;52.352;4.846;2022-12-31T14:49:10;13.40;84.90
76269;DHT22;65088;52.352;4.846;2022-12-31T14:51:43;13.40;84.90
76269;DHT22;65088;52.352;4.846;2022-12-31T14:54:28;13.40;84.80
76269;DHT22;65088;52.352;4.846;2022-12-31T15:01:42;13.40;84.90
76269;DHT22;65088;52.352;4.846;2022-12-31T15:04:13;13.40;84.80
76269;DHT22;65088;52.352;4.846;2022-12-31T15:06:53;13.40;84.80
76269;DHT22;65088;52.352;4.846;2022-12-31T15:13:01;13.40;84.70
76269;DHT22;65088;52.352;4.846;2022-12-31T15:15:56;13.30;84.70
76269;DHT22;65088;52.352;4.846;2022-12-31T15:18:40;13.30;84.80
76269;DHT22;65088;52.352;4.846;2022-12-31T15:21:35;13.30;84.90
76269;DHT22;65088;52.352;4.846;2022-12-31T15:24:18;13.30;85.00
76269;DHT22;65088;52.352;4.846;2022-12-31T15:26:50;13.30;85.00
76269;DHT22;65088;52.352;4.846;2022-12-31T15:29:26;13.20;85.10
76269;DHT22;65088;52.352;4.846;2022-12-31T15:31:58;13.20;85.20
76269;DHT22;65088;52.352;4.846;2022-12-31T15:34:34;13.20;85.20
76269;DHT22;65088;52.352;4.846;2022-12-31T15:37:06;13.20;85.30
76269;DHT22;65088;52.352;4.846;2022-12-31T15:40:04;13.20;85.40
76269;DHT22;65088;52.352;4.846;2022-12-31T15:42:40;13.20;85.50
76269;DHT22;65088;52.352;4.846;2022-12-31T15:45:15;13.20;85.50
76269;DHT22;65088;52.352;4.846;2022-12-31T15:47:51;13.20;85.70
76269;DHT22;65088;52.352;4.846;2022-12-31T15:50:26;13.20;85.60
76269;DHT22;65088;52.352;4.846;2022-12-31T15:52:58;13.20;85.70
76269;DHT22;65088;52.352;4.846;2022-12-31T15:55:31;13.20;85.80
76269;DHT22;65088;52.352;4.846;2022-12-31T15:58:04;13.20;85.90
76269;DHT22;65088;52.352;4.846;2022-12-31T16:00:47;13.20;85.80
76269;DHT22;65088;52.352;4.846;2022-12-31T16:03:22;13.30;85.90
76269;DHT22;65088;52.352;4.846;2022-12-31T16:05:59;13.20;85.90
76269;DHT22;65088;52.352;4.846;2022-12-31T16:08:30;13.30;85.80
76269;DHT22;65088;52.352;4.846;2022-12-31T16:11:02;13.20;85.80
76269;DHT22;65088;52.352;4.846;2022-12-31T16:13:33;13.20;85.90
76269;DHT22;65088;52.352;4.846;2022-12-31T16:16:06;13.30;85.90
76269;DHT22;65088;52.352;4.846;2022-12-31T16:18:37;13.30;85.90
76269;DHT22;65088;52.352;4.846;2022-12-31T16:21:27;13.30;85.80
76269;DHT22;65088;52.352;4.846;2022-12-31T16:23:59;13.30;85.80
76269;DHT22;65088;52.352;4.846;2022-12-31T16:26:33;13.30;85.70
76269;DHT22;65088;52.352;4.846;2022-12-31T16:29:03;13.30;85.70
76269;DHT22;65088;52.352;4.846;2022-12-31T16:31:32;13.30;85.70
76269;DHT22;65088;52.352;4.846;2022-12-31T16:34:04;13.30;85.60
76269;DHT22;65088;52.352;4.846;2022-12-31T16:36:36;13.40;85.70
76269;DHT22;65088;52.352;4.846;2022-12-31T16:39:22;13.40;85.60
76269;DHT22;65088;52.352;4.846;2022-12-31T16:41:58;13.40;85.60
76269;DHT22;65088;52.352;4.846;2022-12-31T16:44:35;13.40;85.50
76269;DHT22;65088;52.352;4.846;2022-12-31T16:47:06;13.40;85.50
76269;DHT22;65088;52.352;4.846;2022-12-31T16:49:38;13.50;85.20
76269;DHT22;65088;52.352;4.846;2022-12-31T16:52:23;13.50;85.00
76269;DHT22;65088;52.352;4.846;2022-12-31T16:54:53;13.50;84.60
76269;DHT22;65088;52.352;4.846;2022-12-31T16:57:25;13.50;84.60
76269;DHT22;65088;52.352;4.846;2022-12-31T17:00:00;13.50;84.30
76269;DHT22;65088;52.352;4.846;2022-12-31T17:02:35;13.50;83.90